Time;durP1;ratioP1;P1;durP2;ratioP2;P2;SDS_P1;SDS_P2;PMS_P1;PMS_P2;Temp;Humidity;BMP_temperature;BMP_pressure;BME280_temperature;BME280_humidity;BME280_pressure;Samples;Min_cycle;Max_cycle;Signal;HPM_P1;HPM_P2
2022/12/15 00:40:06;;;;;;;;;47.50;40.00;;;;;4.28;48.22;100114.38;5038933;28;45420;-64
2022/12/15 00:42:31;;;;;;;;;54.50;43.75;;;;;4.24;48.68;100108.97;5036665;28;45885;-63
2022/12/15 00:44:58;;;;;;;;;59.25;46.75;;;;;4.31;48.22;100120.69;5054852;28;49390;-63
2022/12/15 00:47:24;;;;;;;;;54.75;43.50;;;;;4.30;48.33;100123.28;5036385;28;46358;-62
2022/12/15 01:20:19;;;;;;;;;60.25;43.25;;;;;3.94;49.57;100116.50;5034446;28;45289;-62
2022/12/15 01:22:52;;;;;;;;;66.00;46.00;;;;;3.69;49.97;100112.78;5047712;28;45595;-64
2022/12/15 01:25:20;;;;;;;;;58.75;42.75;;;;;3.79;50.09;100142.25;5033794;28;45430;-63
2022/12/15 01:27:45;;;;;;;;;60.50;43.00;;;;;3.78;50.28;100143.09;5037559;28;45318;-64
2022/12/15 01:30:15;;;;;;;;;55.75;44.25;;;;;3.66;50.64;100148.75;5047621;28;45548;-64
2022/12/15 01:32:40;;;;;;;;;61.75;44.75;;;;;3.61;50.66;100145.91;5037593;28;45493;-65
2022/12/15 01:35:06;;;;;;;;;57.25;41.75;;;;;3.61;50.92;100139.72;5037223;28;45347;-67
2022/12/15 01:37:33;;;;;;;;;62.75;45.50;;;;;3.55;50.71;100120.94;5043538;28;45568;-63
2022/12/15 01:42:42;;;;;;;;;62.25;48.50;;;;;3.60;50.35;100140.56;5038538;28;45480;-59
2022/12/15 01:45:44;;;;;;;;;58.25;45.00;;;;;3.47;50.80;100137.38;5037648;28;45463;-65
2022/12/15 01:48:14;;;;;;;;;54.25;40.50;;;;;3.51;50.96;100159.53;5046518;28;45311;-64
2022/12/15 01:50:47;;;;;;;;;52.00;39.00;;;;;3.47;51.08;100158.50;5037038;28;46401;-64
2022/12/15 01:53:14;;;;;;;;;58.00;45.25;;;;;3.51;51.02;100156.88;5035359;28;45675;-63
2022/12/15 01:55:43;;;;;;;;;59.75;44.50;;;;;3.45;50.97;100154.00;5047171;28;45536;-63
2022/12/15 01:58:10;;;;;;;;;61.75;44.50;;;;;3.37;51.13;100151.00;5033119;28;45425;-66
2022/12/15 02:00:36;;;;;;;;;65.75;47.50;;;;;3.32;51.52;100155.16;5047014;28;45354;-61
2022/12/15 02:03:04;;;;;;;;;58.50;45.75;;;;;3.27;51.49;100154.94;5032836;28;45386;-63
2022/12/15 02:05:30;;;;;;;;;60.50;43.75;;;;;3.22;51.96;100145.03;5046887;28;45368;-63
2022/12/15 02:07:57;;;;;;;;;64.75;46.00;;;;;3.20;51.94;100138.75;5038080;28;45438;-62
2022/12/15 02:10:27;;;;;;;;;58.25;44.25;;;;;3.25;51.86;100140.78;5043155;28;47683;-65
2022/12/15 02:13:08;;;;;;;;;46.50;40.50;;;;;3.19;51.73;100129.94;5036074;28;45405;-66
2022/12/15 02:15:36;;;;;;;;;53.50;43.00;;;;;3.29;51.86;100142.72;5048561;28;45448;-64
2022/12/15 02:18:21;;;;;;;;;59.25;42.00;;;;;3.26;51.93;100144.31;5033979;28;45527;-63
2022/12/15 02:21:22;;;;;;;;;59.25;47.00;;;;;3.24;52.10;100135.44;5044603;28;45622;-64
2022/12/15 02:23:59;;;;;;;;;67.50;48.25;;;;;3.25;52.01;100137.22;5039976;28;46033;-63
2022/12/15 02:27:03;;;;;;;;;42.50;36.50;;;;;3.23;52.17;100145.06;5033349;28;45367;-64
2022/12/15 02:29:49;;;;;;;;;61.50;44.75;;;;;3.23;51.95;100154.72;5046228;28;45316;-66
2022/12/15 02:32:24;;;;;;;;;57.75;45.25;;;;;3.04;52.14;100127.50;5038570;28;46130;-64
2022/12/15 02:34:55;;;;;;;;;54.50;44.25;;;;;3.12;52.19;100147.22;5033793;28;45588;-64
2022/12/15 02:37:29;;;;;;;;;62.75;46.75;;;;;2.82;52.35;100098.28;5044474;28;45393;-64
2022/12/15 02:39:55;;;;;;;;;53.00;42.50;;;;;3.09;51.91;100136.53;5036832;28;45370;-64
2022/12/15 02:42:22;;;;;;;;;59.00;44.75;;;;;3.06;52.67;100146.03;5040635;28;45900;-64
2022/12/15 02:44:54;;;;;;;;;62.25;48.75;;;;;3.07;52.13;100155.75;5055787;28;45613;-68
2022/12/15 02:47:33;;;;;;;;;65.00;50.25;;;;;2.95;52.52;100159.63;5036595;28;45569;-63
2022/12/15 02:50:04;;;;;;;;;54.00;40.25;;;;;2.97;52.84;100161.44;5035682;28;45547;-66
2022/12/15 02:53:12;;;;;;;;;60.25;46.00;;;;;2.90;52.58;100161.16;5040335;28;46193;-64
2022/12/15 02:55:58;;;;;;;;;61.00;46.50;;;;;2.01;52.91;100010.16;5042085;28;45461;-64
2022/12/15 02:58:35;;;;;;;;;63.00;49.75;;;;;2.85;53.03;100161.75;5047066;28;45481;-64
2022/12/15 03:01:11;;;;;;;;;50.50;42.25;;;;;2.78;52.88;100147.38;5037676;28;45729;-64
2022/12/15 03:03:38;;;;;;;;;58.50;45.00;;;;;2.78;53.02;100151.75;5050806;28;45460;-64
2022/12/15 03:06:04;;;;;;;;;60.75;46.75;;;;;2.76;53.05;100160.47;5036969;28;45382;-64
2022/12/15 03:08:29;;;;;;;;;60.50;45.50;;;;;2.76;53.37;100164.88;5048202;28;45410;-64
2022/12/15 03:10:56;;;;;;;;;56.25;44.25;;;;;2.70;52.92;100167.19;5039110;28;45332;-66
2022/12/15 03:13:23;;;;;;;;;53.75;42.00;;;;;2.67;53.59;100162.66;5040150;28;46156;-62
2022/12/15 03:15:48;;;;;;;;;63.25;47.50;;;;;2.69;53.29;100160.09;5037782;28;45625;-66
2022/12/15 03:18:14;;;;;;;;;56.75;42.25;;;;;2.67;53.37;100157.38;5036624;28;45290;-63
2022/12/15 03:20:39;;;;;;;;;56.75;42.25;;;;;2.60;53.17;100139.47;5050602;28;45507;-64
2022/12/15 03:23:05;;;;;;;;;59.25;45.00;;;;;2.53;53.50;100134.75;5055044;28;48008;-67
2022/12/15 03:25:30;;;;;;;;;59.50;46.25;;;;;2.39;53.16;100116.53;5044141;28;45609;-64
2022/12/15 03:27:55;;;;;;;;;59.75;50.50;;;;;2.69;53.26;100166.31;5036065;28;45412;-65
2022/12/15 03:30:21;;;;;;;;;59.75;46.00;;;;;2.71;53.42;100158.47;5048436;28;48344;-65
2022/12/15 03:32:46;;;;;;;;;56.25;44.50;;;;;2.69;53.03;100161.03;5044092;28;46583;-63
2022/12/15 03:35:12;;;;;;;;;58.50;44.00;;;;;2.70;53.33;100157.53;5041073;28;55953;-66
2022/12/15 03:37:38;;;;;;;;;69.50;49.00;;;;;2.70;53.10;100148.72;5053136;28;45364;-65
2022/12/15 03:40:05;;;;;;;;;56.25;42.00;;;;;2.72;53.04;100144.44;5040985;28;45522;-66
2022/12/15 03:42:49;;;;;;;;;65.25;46.75;;;;;2.68;53.05;100146.03;5036413;28;46143;-65
2022/12/15 03:45:19;;;;;;;;;59.25;44.75;;;;;2.69;53.14;100144.28;5034677;28;45432;-64
2022/12/15 03:47:46;;;;;;;;;58.50;48.75;;;;;2.59;53.63;100137.69;5035887;28;45325;-60
2022/12/15 03:50:14;;;;;;;;;53.25;42.50;;;;;2.57;53.23;100141.97;5049448;28;45328;-62
2022/12/15 03:52:39;;;;;;;;;57.50;42.50;;;;;2.52;53.79;100127.66;5035218;28;46285;-66
2022/12/15 03:55:06;;;;;;;;;60.50;42.00;;;;;2.60;53.26;100149.13;5048261;28;50733;-64
2022/12/15 03:57:32;;;;;;;;;53.00;44.75;;;;;2.51;53.42;100136.41;5035371;28;45396;-63
2022/12/15 03:59:57;;;;;;;;;58.75;45.00;;;;;2.61;53.22;100159.75;5034946;28;45525;-61
2022/12/15 04:02:23;;;;;;;;;52.75;45.00;;;;;2.60;53.37;100155.28;5045432;28;46187;-63
2022/12/15 04:04:48;;;;;;;;;55.75;46.25;;;;;2.58;53.53;100146.41;5034098;28;45301;-61
2022/12/15 04:07:14;;;;;;;;;54.00;43.50;;;;;2.65;53.49;100152.88;5048914;28;54493;-60
2022/12/15 04:09:40;;;;;;;;;52.50;38.25;;;;;2.58;53.07;100142.03;5040637;28;45486;-66
2022/12/15 04:12:06;;;;;;;;;60.50;50.25;;;;;2.60;53.04;100149.13;5054467;28;45326;-65
2022/12/15 04:14:31;;;;;;;;;58.50;46.00;;;;;2.78;52.84;100171.09;5053147;28;45314;-63
2022/12/15 04:16:56;;;;;;;;;57.25;45.75;;;;;2.64;53.11;100132.59;5037952;28;45422;-60
2022/12/15 04:22:06;;;;;;;;;61.75;44.25;;;;;2.61;53.12;100140.38;5039652;28;46078;-66
2022/12/15 05:32:52;;;;;;;;;60.00;42.75;;;;;2.63;52.76;100130.81;5034745;28;45375;-63
2022/12/15 05:35:18;;;;;;;;;50.00;42.00;;;;;2.62;52.58;100129.00;5047688;28;45573;-63
2022/12/15 05:37:43;;;;;;;;;61.00;47.25;;;;;2.14;53.06;100052.88;5033600;28;46051;-66
2022/12/15 05:40:10;;;;;;;;;61.00;46.25;;;;;2.27;52.57;100088.66;5047736;28;45345;-64
2022/12/15 05:42:35;;;;;;;;;65.25;50.00;;;;;2.64;53.41;100138.81;5033948;28;45290;-63
2022/12/15 05:45:00;;;;;;;;;51.50;41.50;;;;;2.61;52.79;100141.28;5033805;28;45404;-64
2022/12/15 05:47:26;;;;;;;;;63.75;47.00;;;;;2.71;53.20;100156.72;5052542;28;46286;-64
2022/12/15 05:49:52;;;;;;;;;54.50;38.50;;;;;2.57;52.77;100126.13;5057651;28;45347;-67
2022/12/15 05:52:17;;;;;;;;;51.25;43.75;;;;;2.54;52.44;100123.34;5038184;28;46093;-65
2022/12/15 05:54:42;;;;;;;;;66.25;51.50;;;;;2.73;52.56;100159.44;5043667;28;45357;-64
2022/12/15 05:57:08;;;;;;;;;59.50;45.00;;;;;2.74;53.06;100156.88;5034789;28;62407;-65
2022/12/15 05:59:33;;;;;;;;;65.75;46.75;;;;;2.73;52.47;100143.63;5040611;28;45491;-62
2022/12/15 06:01:58;;;;;;;;;57.00;44.50;;;;;2.70;52.90;100149.63;5049205;28;45350;-65
2022/12/15 06:04:24;;;;;;;;;61.50;45.25;;;;;2.69;53.30;100155.75;5034050;28;46147;-63
2022/12/15 06:06:49;;;;;;;;;59.00;45.00;;;;;2.69;53.09;100165.38;5031216;28;47193;-64
2022/12/15 06:09:14;;;;;;;;;60.50;45.25;;;;;2.72;53.07;100170.81;5032771;28;45458;-63
2022/12/15 06:11:40;;;;;;;;;57.50;44.00;;;;;2.42;53.19;100109.59;5031347;28;45343;-65
2022/12/15 06:14:05;;;;;;;;;56.25;44.50;;;;;2.67;52.98;100157.38;5032785;28;45478;-65
2022/12/15 06:16:31;;;;;;;;;61.25;46.00;;;;;2.69;52.92;100165.38;5039649;28;45355;-65
2022/12/15 06:18:59;;;;;;;;;59.25;45.50;;;;;2.56;53.43;100138.44;5038963;28;45423;-64
2022/12/15 06:21:32;;;;;;;;;59.00;48.50;;;;;2.72;52.72;100163.81;5033532;28;45405;-65
2022/12/15 06:23:57;;;;;;;;;59.50;44.00;;;;;2.73;52.57;100167.34;5048098;28;45500;-62
2022/12/15 06:26:26;;;;;;;;;58.75;48.00;;;;;2.68;53.37;100156.56;5033748;28;45939;-64
2022/12/15 06:28:55;;;;;;;;;61.50;47.25;;;;;2.76;53.05;100170.13;5033126;28;45746;-65
2022/12/15 06:31:21;;;;;;;;;64.25;48.25;;;;;2.75;53.06;100166.56;5036301;28;45529;-65
2022/12/15 06:33:48;;;;;;;;;59.00;46.25;;;;;2.76;53.55;100178.94;5041939;28;45912;-64
2022/12/15 06:36:15;;;;;;;;;69.00;50.00;;;;;2.67;52.94;100165.31;5041523;28;45488;-65
2022/12/15 06:38:42;;;;;;;;;61.00;45.00;;;;;2.79;52.59;100183.47;5040155;28;45435;-65
2022/12/15 06:41:09;;;;;;;;;84.50;62.50;;;;;2.70;52.71;100173.38;5045895;28;45435;-65
2022/12/15 06:43:35;;;;;;;;;54.50;44.00;;;;;2.68;53.05;100167.13;5039000;28;45403;-67
2022/12/15 06:46:01;;;;;;;;;53.25;41.50;;;;;2.65;53.24;100174.88;5054509;28;46191;-65
2022/12/15 06:48:27;;;;;;;;;69.00;50.50;;;;;2.56;52.86;100164.78;5041205;28;45993;-64
2022/12/15 06:50:53;;;;;;;;;71.75;52.25;;;;;2.69;53.45;100181.19;5040940;28;45357;-65
2022/12/15 06:53:21;;;;;;;;;126.00;106.00;;;;;2.73;53.33;100185.81;5046973;28;45337;-64
2022/12/15 06:55:47;;;;;;;;;67.50;51.75;;;;;2.75;53.15;100192.06;5048935;28;47138;-64
2022/12/15 06:58:13;;;;;;;;;74.25;53.00;;;;;2.72;53.06;100184.91;5035539;28;45519;-64
2022/12/15 07:00:41;;;;;;;;;57.00;49.25;;;;;2.69;53.45;100179.50;5045391;28;45383;-63
2022/12/15 07:03:12;;;;;;;;;63.75;44.00;;;;;2.78;52.47;100194.84;5043969;28;45456;-66
2022/12/15 07:05:37;;;;;;;;;61.50;50.75;;;;;2.76;53.32;100192.13;5039989;28;46127;-66
2022/12/15 07:08:03;;;;;;;;;52.75;41.00;;;;;2.58;53.05;100159.59;5037176;28;45458;-65
2022/12/15 07:10:28;;;;;;;;;63.25;50.00;;;;;2.59;52.70;100171.97;5038222;28;45490;-62
2022/12/15 07:12:57;;;;;;;;;64.50;50.00;;;;;2.71;53.19;100192.75;5049246;28;45673;-66
2022/12/15 07:15:23;;;;;;;;;75.50;52.75;;;;;2.72;52.81;100190.19;5035790;28;45871;-63
2022/12/15 07:17:49;;;;;;;;;62.00;48.25;;;;;2.70;52.33;100189.19;5048754;28;46063;-65
2022/12/15 07:20:15;;;;;;;;;59.50;44.50;;;;;2.76;52.42;100197.41;5041832;28;45524;-64
2022/12/15 07:22:41;;;;;;;;;65.25;49.00;;;;;2.72;52.60;100206.03;5049819;28;45479;-67
2022/12/15 07:25:07;;;;;;;;;60.75;45.25;;;;;2.71;52.99;100203.31;5058171;28;45601;-63
2022/12/15 07:27:32;;;;;;;;;69.25;53.25;;;;;2.68;52.38;100211.06;5045794;28;45414;-67
2022/12/15 07:29:57;;;;;;;;;63.75;50.25;;;;;2.67;52.73;100209.25;5034393;28;45391;-64
2022/12/15 07:32:23;;;;;;;;;77.50;56.50;;;;;2.63;52.25;100216.09;5036141;28;45279;-69
2022/12/15 07:34:48;;;;;;;;;71.50;55.25;;;;;2.54;52.35;100197.19;5037014;28;46991;-67
2022/12/15 07:37:15;;;;;;;;;73.00;50.00;;;;;2.68;52.76;100219.88;5038778;28;45290;-64
2022/12/15 07:39:40;;;;;;;;;65.25;48.25;;;;;2.56;52.34;100200.81;5055335;28;45540;-66
2022/12/15 07:42:05;;;;;;;;;62.50;49.00;;;;;2.57;52.22;100210.53;5037754;28;45517;-66
2022/12/15 07:44:31;;;;;;;;;66.00;47.50;;;;;2.67;52.51;100232.97;5047144;28;46257;-64
2022/12/15 07:46:56;;;;;;;;;61.50;48.75;;;;;2.64;52.33;100240.72;5042757;28;45360;-66
2022/12/15 07:49:22;;;;;;;;;66.00;48.75;;;;;2.52;52.42;100214.66;5035780;28;45463;-61
2022/12/15 07:51:47;;;;;;;;;66.50;47.00;;;;;2.61;52.47;100243.22;5036279;28;45473;-65
2022/12/15 07:54:13;;;;;;;;;67.50;48.00;;;;;2.48;52.36;100236.44;5040888;28;46977;-66
2022/12/15 07:56:39;;;;;;;;;69.25;51.25;;;;;2.26;52.76;100206.38;5045638;28;45456;-66
2022/12/15 07:59:06;;;;;;;;;60.00;46.50;;;;;2.46;53.23;100239.00;5041016;28;45378;-64
2022/12/15 08:01:31;;;;;;;;;76.25;57.50;;;;;2.48;52.89;100237.34;5055250;28;45415;-64
2022/12/15 08:03:57;;;;;;;;;66.75;53.00;;;;;2.42;52.77;100237.03;5042084;28;45311;-66
2022/12/15 08:06:23;;;;;;;;;68.75;51.50;;;;;2.43;53.09;100232.69;5036208;28;45419;-62
2022/12/15 08:08:49;;;;;;;;;64.00;45.25;;;;;2.53;52.49;100246.38;5051288;28;45521;-63
2022/12/15 08:11:15;;;;;;;;;66.75;49.75;;;;;2.54;52.71;100253.47;5040941;28;45459;-66
2022/12/15 08:13:42;;;;;;;;;63.50;47.25;;;;;2.26;52.73;100201.09;5057412;28;45437;-66
2022/12/15 08:16:08;;;;;;;;;63.25;50.50;;;;;2.68;52.88;100269.97;5055363;28;45630;-65
2022/12/15 08:18:34;;;;;;;;;65.00;48.25;;;;;2.67;52.42;100278.72;5045719;28;45517;-66
2022/12/15 08:21:03;;;;;;;;;65.50;48.00;;;;;2.69;52.74;100279.72;5054195;28;45393;-68
2022/12/15 08:23:29;;;;;;;;;75.25;51.75;;;;;2.67;53.02;100276.06;5046465;28;45675;-64
2022/12/15 08:26:01;;;;;;;;;62.75;49.25;;;;;2.78;52.44;100286.28;5035663;28;45308;-65
2022/12/15 08:28:26;;;;;;;;;74.25;52.25;;;;;2.80;51.89;100276.69;5039317;28;45452;-65
2022/12/15 08:30:52;;;;;;;;;67.25;51.25;;;;;2.80;52.18;100285.50;5055638;28;48635;-63
2022/12/15 08:33:17;;;;;;;;;65.75;49.50;;;;;2.74;51.70;100272.94;5052510;28;46337;-64
2022/12/15 08:35:43;;;;;;;;;67.25;47.25;;;;;2.89;52.02;100290.38;5041197;28;45286;-61
2022/12/15 08:38:08;;;;;;;;;63.25;49.25;;;;;2.92;51.80;100286.13;5041180;28;45459;-64
2022/12/15 08:40:33;;;;;;;;;70.50;53.25;;;;;2.94;51.94;100291.50;5040677;28;45554;-62
2022/12/15 08:42:59;;;;;;;;;64.00;46.75;;;;;2.93;51.72;100284.41;5055303;28;45319;-64
2022/12/15 08:45:24;;;;;;;;;65.75;50.00;;;;;2.88;51.57;100273.59;5037947;28;45351;-64
2022/12/15 08:47:50;;;;;;;;;61.75;51.00;;;;;2.98;52.04;100287.25;5044236;28;45444;-65
2022/12/15 08:50:16;;;;;;;;;59.25;46.00;;;;;2.95;51.48;100262.53;5052276;28;45521;-65
2022/12/15 08:52:41;;;;;;;;;73.50;51.00;;;;;3.09;51.21;100278.16;5042411;28;46341;-66
2022/12/15 08:55:12;;;;;;;;;74.00;57.25;;;;;3.11;51.01;100277.38;5041723;28;45527;-63
2022/12/15 08:57:39;;;;;;;;;64.75;47.50;;;;;3.11;50.66;100272.09;5044650;28;45367;-63
2022/12/15 09:00:05;;;;;;;;;95.75;76.75;;;;;3.10;50.98;100269.38;5046450;28;45450;-66
2022/12/15 09:02:31;;;;;;;;;64.50;48.50;;;;;2.96;51.03;100239.69;5038592;28;45426;-65
2022/12/15 09:04:56;;;;;;;;;72.00;51.00;;;;;2.25;51.19;100109.66;5044255;28;45481;-66
2022/12/15 09:07:21;;;;;;;;;65.25;49.50;;;;;3.26;50.72;100281.59;5036002;28;45442;-66
2022/12/15 09:09:47;;;;;;;;;59.50;46.00;;;;;3.25;50.44;100270.13;5037697;28;45418;-65
2022/12/15 09:12:12;;;;;;;;;65.25;52.25;;;;;3.32;50.26;100272.22;5047057;28;58874;-64
2022/12/15 09:14:38;;;;;;;;;71.25;54.25;;;;;3.28;50.45;100272.94;5034195;28;45362;-65
2022/12/15 09:17:03;;;;;;;;;96.75;74.75;;;;;3.24;50.64;100265.69;5045223;28;45474;-65
2022/12/15 09:19:29;;;;;;;;;71.75;54.00;;;;;3.30;51.01;100260.69;5052495;28;45291;-66
2022/12/15 09:21:54;;;;;;;;;67.00;52.50;;;;;3.41;50.49;100279.66;5044763;28;45318;-64
2022/12/15 09:24:19;;;;;;;;;61.25;48.25;;;;;3.50;50.73;100281.88;5044017;28;45640;-64
2022/12/15 09:26:45;;;;;;;;;70.50;49.00;;;;;3.58;50.55;100279.56;5032893;28;45623;-63
2022/12/15 09:29:12;;;;;;;;;72.50;51.25;;;;;2.69;50.71;100116.19;5032907;28;45517;-66
2022/12/15 09:31:38;;;;;;;;;75.00;57.75;;;;;3.60;50.26;100275.28;5047721;28;46340;-65
2022/12/15 09:34:03;;;;;;;;;66.50;53.75;;;;;3.72;50.34;100290.78;5034017;28;45441;-63
2022/12/15 09:36:31;;;;;;;;;60.75;45.50;;;;;3.80;49.89;100285.03;5048685;28;45322;-65
2022/12/15 09:38:57;;;;;;;;;83.75;60.00;;;;;3.86;49.95;100287.94;5048364;28;45396;-65
2022/12/15 09:41:26;;;;;;;;;70.50;56.00;;;;;3.71;49.69;100241.41;5032855;28;45574;-63
2022/12/15 09:44:09;;;;;;;;;71.25;55.25;;;;;3.81;49.36;100273.63;5047529;28;45247;-67
2022/12/15 09:47:00;;;;;;;;;71.25;53.00;;;;;3.92;49.91;100294.34;5032974;28;46140;-62
2022/12/15 09:49:28;;;;;;;;;68.50;50.25;;;;;3.96;49.44;100302.50;5036672;28;45343;-65
2022/12/15 09:52:04;;;;;;;;;63.75;49.75;;;;;3.92;49.37;100307.56;5034546;28;45587;-67
2022/12/15 09:54:32;;;;;;;;;35.75;24.75;;;;;3.82;49.21;100298.31;5053809;28;45366;-66
2022/12/15 09:57:03;;;;;;;;;67.25;50.50;;;;;3.79;49.48;100287.59;5038507;28;45434;-66
2022/12/15 09:59:40;;;;;;;;;68.00;47.50;;;;;4.01;49.58;100307.97;5040448;28;45601;-65
2022/12/15 10:02:28;;;;;;;;;81.25;60.75;;;;;4.01;49.32;100298.31;5038532;28;45402;-68
2022/12/15 10:05:18;;;;;;;;;67.50;53.00;;;;;3.98;49.35;100299.91;5046495;28;45286;-66
2022/12/15 10:07:45;;;;;;;;;72.75;58.50;;;;;3.96;49.67;100299.84;5042733;28;45370;-65
2022/12/15 10:10:13;;;;;;;;;70.50;53.00;;;;;3.97;49.73;100301.63;5046440;28;45476;-63
2022/12/15 10:12:40;;;;;;;;;67.00;52.50;;;;;3.98;49.71;100294.63;5039829;28;46208;-66
2022/12/15 10:15:18;;;;;;;;;67.75;49.00;;;;;3.99;49.94;100304.34;5046775;28;45354;-65
2022/12/15 10:17:58;;;;;;;;;76.50;55.25;;;;;3.81;49.85;100276.28;5051010;28;46134;-66
2022/12/15 10:20:27;;;;;;;;;69.00;53.50;;;;;3.97;49.96;100298.09;5035736;28;45581;-60
2022/12/15 10:22:55;;;;;;;;;64.50;49.25;;;;;4.00;49.66;100293.84;5050968;28;46168;-64
2022/12/15 10:25:22;;;;;;;;;69.00;49.25;;;;;4.03;50.08;100288.72;5036443;28;45501;-65
2022/12/15 10:28:06;;;;;;;;;67.00;51.00;;;;;4.07;49.90;100297.66;5050464;28;45418;-64
2022/12/15 10:30:34;;;;;;;;;68.50;51.50;;;;;3.96;49.80;100268.13;5036556;28;45441;-65
2022/12/15 10:33:21;;;;;;;;;69.75;49.00;;;;;3.99;49.34;100265.63;5048486;28;45473;-66
2022/12/15 10:35:47;;;;;;;;;74.75;55.50;;;;;4.18;49.05;100298.16;5038129;28;45554;-65
2022/12/15 10:38:37;;;;;;;;;73.00;53.75;;;;;4.21;49.13;100290.38;5038021;28;45446;-66
2022/12/15 10:41:11;;;;;;;;;66.00;51.50;;;;;4.05;48.32;100242.09;5048399;28;45467;-65
2022/12/15 10:43:45;;;;;;;;;60.75;46.00;;;;;4.30;49.08;100266.97;5039691;28;45517;-66
2022/12/15 10:46:21;;;;;;;;;70.50;52.00;;;;;4.35;48.99;100269.81;5052758;28;45505;-65
2022/12/15 10:49:05;;;;;;;;;70.25;48.00;;;;;4.40;48.36;100266.50;5037335;28;45348;-66
2022/12/15 10:51:42;;;;;;;;;77.50;56.25;;;;;4.43;48.40;100258.72;5049993;28;45558;-68
2022/12/15 10:54:11;;;;;;;;;65.00;53.75;;;;;4.43;48.16;100252.53;5039374;28;46892;-63
2022/12/15 10:56:52;;;;;;;;;77.25;55.25;;;;;4.17;48.33;100198.53;5043920;28;46534;-65
2022/12/15 10:59:21;;;;;;;;;75.50;58.25;;;;;4.45;48.42;100245.56;5036555;28;45404;-64
2022/12/15 11:01:46;;;;;;;;;68.00;51.25;;;;;4.47;47.88;100240.34;5038745;28;45509;-65
2022/12/15 11:04:29;;;;;;;;;67.75;49.25;;;;;4.51;48.64;100226.41;5050306;28;48470;-66
2022/12/15 11:07:00;;;;;;;;;62.75;49.00;;;;;4.63;48.24;100228.69;5038342;28;45386;-60
2022/12/15 11:09:33;;;;;;;;;59.25;46.75;;;;;4.69;47.95;100221.00;5037866;28;45463;-63
2022/12/15 11:14:46;;;;;;;;;74.50;54.25;;;;;4.81;47.58;100210.91;5045359;28;45991;-68
2022/12/15 11:17:21;;;;;;;;;63.75;48.75;;;;;4.87;47.98;100210.28;5042738;28;45659;-67
2022/12/15 11:19:59;;;;;;;;;72.25;49.25;;;;;4.88;48.25;100191.78;5034158;28;45335;-64
2022/12/15 11:22:51;;;;;;;;;77.25;57.25;;;;;4.85;48.09;100172.22;5048254;28;45389;-67
2022/12/15 11:25:23;;;;;;;;;78.75;55.25;;;;;4.93;47.95;100184.94;5041748;28;46078;-66
2022/12/15 11:27:53;;;;;;;;;64.50;51.75;;;;;4.79;47.83;100147.31;5048411;28;45563;-65
2022/12/15 11:30:25;;;;;;;;;66.25;50.75;;;;;4.98;47.90;100183.38;5043584;28;45311;-70
2022/12/15 11:32:57;;;;;;;;;69.50;51.25;;;;;5.05;47.43;100183.59;5050136;28;45559;-68
2022/12/15 11:35:57;;;;;;;;;72.00;49.75;;;;;5.09;47.95;100169.66;5039418;28;45969;-67
2022/12/15 11:38:42;;;;;;;;;71.00;50.25;;;;;4.91;47.46;100111.59;5042001;28;45406;-67
2022/12/15 11:41:24;;;;;;;;;66.75;46.75;;;;;5.11;47.42;100150.31;5038388;28;45577;-68
2022/12/15 11:44:18;;;;;;;;;55.50;44.00;;;;;5.15;47.62;100151.38;5043859;28;45276;-68
2022/12/15 11:47:02;;;;;;;;;85.00;60.50;;;;;5.01;46.45;100132.28;5036565;28;47225;-69
2022/12/15 11:49:36;;;;;;;;;65.75;46.75;;;;;5.02;46.78;100138.50;5047825;28;45545;-68
2022/12/15 11:52:13;;;;;;;;;78.25;61.25;;;;;5.05;46.97;100138.59;5043333;28;45436;-65
2022/12/15 11:54:54;;;;;;;;;57.50;45.00;;;;;5.01;46.27;100142.88;5036700;28;45567;-67
2022/12/15 11:57:38;;;;;;;;;61.25;45.25;;;;;5.03;47.20;100132.34;5036685;28;48032;-69
2022/12/15 12:00:09;;;;;;;;;63.75;50.00;;;;;5.10;46.78;100126.47;5040015;28;45316;-67
2022/12/15 12:02:34;;;;;;;;;59.00;46.75;;;;;5.12;46.56;100122.13;5050116;28;45743;-64
2022/12/15 12:05:33;;;;;;;;;71.00;51.75;;;;;5.15;46.24;100125.78;5037210;28;45497;-64
2022/12/15 12:08:01;;;;;;;;;70.50;47.75;;;;;5.16;46.10;100117.00;5034820;28;45799;-64
2022/12/15 12:10:44;;;;;;;;;65.00;51.00;;;;;5.22;45.87;100120.72;5039681;28;45509;-64
2022/12/15 12:13:37;;;;;;;;;66.50;50.00;;;;;5.17;45.64;100092.31;5034982;28;45329;-61
2022/12/15 12:16:15;;;;;;;;;61.50;48.25;;;;;5.31;45.11;100102.50;5045924;28;45247;-64
2022/12/15 12:19:03;;;;;;;;;57.75;46.50;;;;;5.40;45.30;100105.50;5048766;28;47295;-67
2022/12/15 12:21:44;;;;;;;;;59.00;42.25;;;;;5.45;44.87;100108.34;5040901;28;45522;-66
2022/12/15 12:24:16;;;;;;;;;60.75;44.25;;;;;5.39;44.92;100082.50;5040889;28;45342;-67
2022/12/15 12:26:55;;;;;;;;;56.50;45.25;;;;;5.46;44.72;100086.28;5036756;28;45546;-64
2022/12/15 12:29:52;;;;;;;;;56.50;44.75;;;;;5.38;44.49;100069.19;5042200;28;45401;-66
2022/12/15 12:32:27;;;;;;;;;74.75;54.25;;;;;5.46;44.72;100067.72;5034600;28;45465;-65
2022/12/15 12:35:26;;;;;;;;;61.00;46.50;;;;;5.61;44.21;100075.31;5040702;28;45506;-66
2022/12/15 12:37:58;;;;;;;;;50.75;42.50;;;;;5.51;43.12;100061.75;5048145;28;45488;-66
2022/12/15 12:40:30;;;;;;;;;56.25;43.00;;;;;5.57;43.47;100076.97;5036933;28;46184;-67
2022/12/15 12:42:57;;;;;;;;;61.50;47.25;;;;;5.59;43.93;100080.56;5037799;28;45436;-67
2022/12/15 12:45:30;;;;;;;;;57.00;44.50;;;;;5.39;43.43;100047.16;5039609;28;45444;-67
2022/12/15 12:48:02;;;;;;;;;56.75;44.50;;;;;5.54;43.45;100079.50;5050767;28;45393;-65
2022/12/15 12:50:29;;;;;;;;;48.50;39.00;;;;;5.48;43.39;100077.53;5050368;28;45564;-65
2022/12/15 12:52:57;;;;;;;;;56.75;43.75;;;;;5.44;43.92;100074.72;5043251;28;45477;-66
2022/12/15 12:55:27;;;;;;;;;61.75;48.75;;;;;5.35;44.18;100076.19;5032565;28;45653;-66
2022/12/15 12:57:54;;;;;;;;;55.00;40.00;;;;;5.35;44.54;100065.59;5043620;28;45489;-64
2022/12/15 13:00:27;;;;;;;;;61.75;50.50;;;;;5.32;44.90;100081.38;5036783;28;45551;-68
2022/12/15 13:03:15;;;;;;;;;63.00;50.75;;;;;4.51;44.92;99939.00;5046773;28;45405;-63
2022/12/15 13:05:42;;;;;;;;;64.00;44.75;;;;;5.40;45.11;100080.78;5044813;28;45435;-66
2022/12/15 13:08:08;;;;;;;;;57.50;43.25;;;;;5.42;44.08;100076.44;5035241;28;45440;-65
2022/12/15 13:10:37;;;;;;;;;54.75;43.25;;;;;5.38;44.61;100066.53;5045722;28;45993;-66
2022/12/15 13:13:15;;;;;;;;;57.50;42.75;;;;;5.39;44.81;100071.00;5046447;28;45374;-67
2022/12/15 13:15:45;;;;;;;;;58.00;45.00;;;;;5.40;44.59;100076.38;5040012;28;45497;-65
2022/12/15 13:18:10;;;;;;;;;60.75;40.25;;;;;5.39;45.12;100063.97;5039152;28;45564;-64
2022/12/15 13:20:37;;;;;;;;;58.00;42.75;;;;;5.40;45.10;100056.94;5043909;28;46439;-68
2022/12/15 13:23:21;;;;;;;;;55.75;41.50;;;;;5.46;45.22;100067.72;5046191;28;45464;-65
2022/12/15 13:25:52;;;;;;;;;55.75;42.50;;;;;5.48;44.81;100066.94;5044772;28;45398;-66
2022/12/15 13:28:41;;;;;;;;;63.50;42.00;;;;;5.50;44.77;100067.91;5042672;28;45922;-66
2022/12/15 13:31:29;;;;;;;;;50.25;40.75;;;;;5.46;44.95;100066.00;5032774;28;48543;-63
2022/12/15 13:34:00;;;;;;;;;52.50;39.50;;;;;5.22;44.50;100041.28;5042992;28;45437;-63
2022/12/15 13:36:40;;;;;;;;;50.25;38.25;;;;;5.40;44.71;100072.81;5041947;28;45537;-66
2022/12/15 13:39:11;;;;;;;;;58.25;43.25;;;;;5.41;44.69;100074.63;5036870;28;45491;-66
2022/12/15 13:42:00;;;;;;;;;46.25;41.75;;;;;5.41;44.79;100072.88;5035508;28;45651;-67
2022/12/15 13:44:36;;;;;;;;;53.00;39.25;;;;;5.42;44.75;100066.72;5019465;28;45577;-66
2022/12/15 13:47:28;;;;;;;;;55.50;39.00;;;;;5.45;44.47;100061.53;5033225;28;45488;-66
2022/12/15 13:49:59;;;;;;;;;43.75;37.50;;;;;5.53;44.71;100059.16;5033020;28;46239;-67
2022/12/15 13:52:27;;;;;;;;;58.50;43.00;;;;;5.64;43.63;100054.22;5040992;28;46114;-67
2022/12/15 13:54:59;;;;;;;;;46.00;40.00;;;;;5.70;43.21;100049.16;5045043;28;45466;-68
2022/12/15 13:57:30;;;;;;;;;42.75;38.75;;;;;5.79;43.20;100054.78;5042196;28;45305;-67
2022/12/15 14:00:06;;;;;;;;;46.75;32.50;;;;;5.88;43.39;100057.72;5034909;28;45915;-66